
Distance (Route):
Temperature : -49.9°C
Humidity : 36.3%
Pressure : 0hPa| Receiver | Frames | First received | Last received |
|---|---|---|---|
| LZ4TU-5 | 77 | 2026-08-30 11:35:17 | 2026-08-30 12:51:19 |
| OM5KV | 47 | 2026-08-30 12:40:31 | 2026-08-30 12:44:11 |
| OE3JTB-15 | 23 | 2026-08-30 12:10:25 | 2026-08-30 12:32:20 |
| 9A1FER-3 | 16 | 2026-08-30 12:39:24 | 2026-08-30 12:43:47 |
| PETON7-10 | 1 | 2026-08-30 12:41:51 | 2026-08-30 12:41:51 |
| Receiver | Date | Latitude | Longitude | Direction | Speed | Altitude | Climb | Temperature | Humidity | Pressure | Voltage | Killtimer | Uptime | BKT | XDATA |
|---|---|---|---|---|---|---|---|---|---|---|---|---|---|---|---|
| LZ4TU-5 | 2026-08-30 12:51:19 | 44.74173 | 20.87423 | 106° | 62km/h | 11346m | -24.0m/s | -49.9°C | 36.3% | 0hPa | 5.4V | 00:00:00 | 00:00:00 | 00:00:00 | |
| LZ4TU-5 | 2026-08-30 12:51:15 | 44.74191 | 20.87337 | 107° | 66km/h | 11437m | -24.1m/s | -50.4°C | 33.9% | 0hPa | 5.4V | 00:00:00 | 00:00:00 | 00:00:00 | |
| LZ4TU-5 | 2026-08-30 12:49:15 | 44.74658 | 20.85020 | 123° | 42km/h | 14637m | -30.0m/s | -58.7°C | 0.5% | 0hPa | 5.4V | 00:00:00 | 00:00:00 | 00:00:00 | |
| LZ4TU-5 | 2026-08-30 12:49:10 | 44.74679 | 20.84963 | 108° | 29km/h | 14791m | -30.5m/s | -58.7°C | 0.1% | 0hPa | 5.4V | 00:00:00 | 00:00:00 | 00:00:00 | |
| LZ4TU-5 | 2026-08-30 12:47:03 | 44.74715 | 20.83971 | 360° | 22km/h | 19360m | -43.1m/s | -56.3°C | 0.0% | 0hPa | 5.4V | 00:00:00 | 00:00:00 | 00:00:00 | |
| LZ4TU-5 | 2026-08-30 12:46:54 | 44.74675 | 20.83969 | 357° | 20km/h | 19756m | -44.4m/s | -56.1°C | 0.0% | 0hPa | 5.4V | 00:00:00 | 00:00:00 | 00:00:00 | |
| LZ4TU-5 | 2026-08-30 12:44:39 | 44.74486 | 20.84140 | 28° | 13km/h | 27721m | -84.8m/s | -45.2°C | 2.3% | 0hPa | 5.4V | 00:00:00 | 00:00:00 | 00:00:00 | |
| LZ4TU-5 | 2026-08-30 12:44:34 | 44.74476 | 20.84134 | 40° | 13km/h | 28145m | -87.3m/s | -43.9°C | 2.4% | 0hPa | 5.4V | 00:00:00 | 00:00:00 | 00:00:00 | |
| OM5KV | 2026-08-30 12:44:11 | 44.74393 | 20.84082 | 11° | 26km/h | 30257m | -94.4m/s | -37.9°C | 2.7% | 0hPa | 5.4V | 00:00:00 | 00:00:00 | 00:00:00 | |
| OM5KV | 2026-08-30 12:44:09 | 44.74381 | 20.84079 | 12° | 24km/h | 30447m | -92.7m/s | -37.7°C | 2.8% | 0hPa | 5.4V | 00:00:00 | 00:00:00 | 00:00:00 | |
| OM5KV | 2026-08-30 12:44:02 | 44.74323 | 20.84068 | 1° | 40km/h | 31055m | -75.0m/s | -37.5°C | 3.0% | 0hPa | 5.4V | 00:00:00 | 00:00:00 | 00:00:00 | |
| OM5KV | 2026-08-30 12:43:55 | 44.74237 | 20.84063 | 5° | 53km/h | 31471m | -36.8m/s | -37.4°C | 3.1% | 0hPa | 5.4V | 00:00:00 | 00:00:00 | 00:00:00 | |
| OM5KV | 2026-08-30 12:43:53 | 44.74207 | 20.84062 | 360° | 64km/h | 31518m | -9.3m/s | -37.2°C | 2.9% | 0hPa | 5.4V | 00:00:00 | 00:00:00 | 00:00:00 | |
| OM5KV | 2026-08-30 12:43:49 | 44.74137 | 20.84068 | 357° | 64km/h | 31510m | 7.2m/s | -37.3°C | 3.1% | 0hPa | 5.4V | 00:00:00 | 00:00:00 | 00:00:00 | |
| 9A1FER-3 | 2026-08-30 12:43:47 | 44.74110 | 20.84068 | 4° | 35km/h | 31499m | 6.1m/s | -37.0°C | 0% | 0hPa | 5.4V | 00:00:00 | 00:00:00 | 00:00:00 | |
| OM5KV | 2026-08-30 12:43:43 | 44.74083 | 20.84048 | 48° | 26km/h | 31470m | 3.6m/s | -37.0°C | 3.0% | 0hPa | 5.4V | 00:00:00 | 00:00:00 | 00:00:00 | |
| OM5KV | 2026-08-30 12:43:39 | 44.74055 | 20.84057 | 322° | 51km/h | 31439m | 7.6m/s | -37.1°C | 2.9% | 0hPa | 5.4V | 00:00:00 | 00:00:00 | 00:00:00 | |
| OM5KV | 2026-08-30 12:43:35 | 44.74006 | 20.84080 | 11° | 42km/h | 31411m | 7.8m/s | -37.1°C | 2.9% | 0hPa | 5.4V | 00:00:00 | 00:00:00 | 00:00:00 | |
| OM5KV | 2026-08-30 12:43:33 | 44.73992 | 20.84071 | 49° | 22km/h | 31394m | 7.3m/s | -36.9°C | 2.9% | 0hPa | 5.4V | 00:00:00 | 00:00:00 | 00:00:00 | |
| 9A1FER-3 | 2026-08-30 12:43:30 | 44.73983 | 20.84055 | 9° | 29km/h | 31376m | 5.2m/s | -36.6°C | 0% | 0hPa | 5.4V | 00:00:00 | 00:00:00 | 00:00:00 | |
| OM5KV | 2026-08-30 12:43:24 | 44.73939 | 20.84103 | 338° | 37km/h | 31333m | 5.5m/s | -36.9°C | 2.8% | 0hPa | 5.4V | 00:00:00 | 00:00:00 | 00:00:00 | |
| OM5KV | 2026-08-30 12:43:22 | 44.73921 | 20.84104 | 24° | 37km/h | 31314m | 8.8m/s | -37.0°C | 2.8% | 0hPa | 5.4V | 00:00:00 | 00:00:00 | 00:00:00 | |
| OM5KV | 2026-08-30 12:43:16 | 44.73906 | 20.84097 | 299° | 27km/h | 31274m | 6.0m/s | -37.3°C | 2.9% | 0hPa | 5.4V | 00:00:00 | 00:00:00 | 00:00:00 | |
| 9A1FER-3 | 2026-08-30 12:43:15 | 44.73901 | 20.84105 | 319° | 22km/h | 31268m | 6.5m/s | -37.4°C | 0% | 0hPa | 5.4V | 00:00:00 | 00:00:00 | 00:00:00 | |
| OM5KV | 2026-08-30 12:43:09 | 44.73861 | 20.84084 | 54° | 18km/h | 31225m | 6.8m/s | -37.8°C | 3.0% | 0hPa | 5.4V | 00:00:00 | 00:00:00 | 00:00:00 | |
| OM5KV | 2026-08-30 12:43:04 | 44.73862 | 20.84077 | 56° | 11km/h | 31182m | 6.2m/s | -38.2°C | 3.1% | 0hPa | 5.4V | 00:00:00 | 00:00:00 | 00:00:00 | |
| OM5KV | 2026-08-30 12:43:03 | 44.73860 | 20.84074 | 35° | 15km/h | 31174m | 7.6m/s | -38.2°C | 3.1% | 0hPa | 5.4V | 00:00:00 | 00:00:00 | 00:00:00 | |
| 9A1FER-3 | 2026-08-30 12:43:00 | 44.73851 | 20.84070 | 8° | 18km/h | 31161m | 5.9m/s | -38.1°C | 0% | 0hPa | 5.4V | 00:00:00 | 00:00:00 | 00:00:00 | |
| OM5KV | 2026-08-30 12:42:57 | 44.73842 | 20.84066 | 103° | 9km/h | 31142m | 8.8m/s | -38.2°C | 3.0% | 0hPa | 5.4V | 00:00:00 | 00:00:00 | 00:00:00 | |
| OM5KV | 2026-08-30 12:42:51 | 44.73837 | 20.84038 | 333° | 16km/h | 31099m | 6.6m/s | -38.4°C | 3.1% | 0hPa | 5.4V | 00:00:00 | 00:00:00 | 00:00:00 | |
| 9A1FER-3 | 2026-08-30 12:42:45 | 44.73823 | 20.84038 | 57° | 18km/h | 31057m | 8.0m/s | -38.3°C | 0% | 0hPa | 5.4V | 00:00:00 | 00:00:00 | 00:00:00 | |
| OM5KV | 2026-08-30 12:42:40 | 44.73800 | 20.84007 | 75° | 16km/h | 31019m | 9.2m/s | -38.3°C | 2.9% | 0hPa | 5.4V | 00:00:00 | 00:00:00 | 00:00:00 | |
| OM5KV | 2026-08-30 12:42:39 | 44.73801 | 20.84002 | 131° | 15km/h | 31012m | 6.8m/s | -38.3°C | 2.9% | 0hPa | 5.4V | 00:00:00 | 00:00:00 | 00:00:00 | |
| OM5KV | 2026-08-30 12:42:34 | 44.73803 | 20.84001 | 350° | 15km/h | 30978m | 6.3m/s | -38.5°C | 3.0% | 0hPa | 5.4V | 00:00:00 | 00:00:00 | 00:00:00 | |
| LZ4TU-5 | 2026-08-30 12:42:31 | 44.73789 | 20.83976 | 73° | 35km/h | 30946m | 8.3m/s | -38.4°C | 2.9% | 0hPa | 5.4V | 00:00:00 | 00:00:00 | 00:00:00 | |
| 9A1FER-3 | 2026-08-30 12:42:29 | 44.73786 | 20.83964 | 72° | 29km/h | 30939m | 6.5m/s | -38.3°C | 0% | 0hPa | 5.4V | 00:00:00 | 00:00:00 | 00:00:00 | |
| OM5KV | 2026-08-30 12:42:28 | 44.73784 | 20.83953 | 83° | 29km/h | 30935m | 4.2m/s | -38.4°C | 2.9% | 0hPa | 5.4V | 00:00:00 | 00:00:00 | 00:00:00 | |
| LZ4TU-5 | 2026-08-30 12:42:26 | 44.73791 | 20.83935 | 173° | 16km/h | 30911m | 8.2m/s | -38.4°C | 2.9% | 0hPa | 5.4V | 00:00:00 | 00:00:00 | 00:00:00 | |
| OM5KV | 2026-08-30 12:42:23 | 44.73796 | 20.83938 | 253° | 5km/h | 30904m | 2.9m/s | -38.2°C | 2.8% | 0hPa | 5.4V | 00:00:00 | 00:00:00 | 00:00:00 | |
| OM5KV | 2026-08-30 12:42:17 | 44.73767 | 20.83889 | 77° | 31km/h | 30859m | 7.3m/s | -38.5°C | 2.9% | 0hPa | 5.4V | 00:00:00 | 00:00:00 | 00:00:00 | |
| OM5KV | 2026-08-30 12:42:11 | 44.73775 | 20.83864 | 103° | 15km/h | 30814m | 6.0m/s | -38.5°C | 2.8% | 0hPa | 5.4V | 00:00:00 | 00:00:00 | 00:00:00 | |
| 9A1FER-3 | 2026-08-30 12:42:07 | 44.73763 | 20.83837 | 33° | 26km/h | 30785m | 9.5m/s | -38.9°C | 0% | 0hPa | 5.4V | 00:00:00 | 00:00:00 | 00:00:00 | |
| OM5KV | 2026-08-30 12:42:05 | 44.73746 | 20.83823 | 34° | 33km/h | 30776m | 3.4m/s | -39.2°C | 3.0% | 0hPa | 5.4V | 00:00:00 | 00:00:00 | 00:00:00 | |
| OM5KV | 2026-08-30 12:42:04 | 44.73740 | 20.83816 | 45° | 26km/h | 30770m | 7.0m/s | -39.3°C | 3.0% | 0hPa | 5.4V | 00:00:00 | 00:00:00 | 00:00:00 | |
| OM5KV | 2026-08-30 12:41:58 | 44.73754 | 20.83773 | 58° | 18km/h | 30725m | 6.2m/s | -39.6°C | 3.0% | 0hPa | 5.4V | 00:00:00 | 00:00:00 | 00:00:00 | |
| OM5KV | 2026-08-30 12:41:54 | 44.73725 | 20.83758 | 15° | 47km/h | 30693m | 6.2m/s | -39.5°C | 3.0% | 0hPa | 5.4V | 00:00:00 | 00:00:00 | 00:00:00 | |
| OM5KV | 2026-08-30 12:41:53 | 44.73714 | 20.83753 | 25° | 46km/h | 30687m | 7.1m/s | -39.6°C | 3.0% | 0hPa | 5.4V | 00:00:00 | 00:00:00 | 00:00:00 | |
| PETON7-10 | 2026-08-30 12:41:51 | 44.73702 | 20.83736 | 73° | 22km/h | 30674m | 6.7m/s | -39.7°C | 0% | 0hPa | 5.4V | 00:00:00 | 00:00:00 | 00:00:00 | |
| OM5KV | 2026-08-30 12:41:48 | 44.73709 | 20.83726 | 209° | 15km/h | 30649m | 5.8m/s | -39.5°C | 3.0% | 0hPa | 5.4V | 00:00:00 | 00:00:00 | 00:00:00 | |
| OM5KV | 2026-08-30 12:41:47 | 44.73711 | 20.83729 | 265° | 9km/h | 30646m | 4.0m/s | -39.3°C | 3.0% | 0hPa | 5.4V | 00:00:00 | 00:00:00 | 00:00:00 | |
| 9A1FER-3 | 2026-08-30 12:41:46 | 44.73710 | 20.83731 | 337° | 18km/h | 30640m | 6.3m/s | -39.3°C | 0% | 0hPa | 5.4V | 00:00:00 | 00:00:00 | 00:00:00 | |
| OM5KV | 2026-08-30 12:41:44 | 44.73687 | 20.83723 | 20° | 49km/h | 30614m | 7.1m/s | -39.5°C | 3.0% | 0hPa | 5.4V | 00:00:00 | 00:00:00 | 00:00:00 | |
| OM5KV | 2026-08-30 12:41:35 | 44.73669 | 20.83710 | 158° | 7km/h | 30559m | 5.4m/s | -39.3°C | 2.9% | 0hPa | 5.4V | 00:00:00 | 00:00:00 | 00:00:00 | |
| OM5KV | 2026-08-30 12:41:32 | 44.73660 | 20.83710 | 358° | 31km/h | 30535m | 6.4m/s | -39.0°C | 2.8% | 0hPa | 5.4V | 00:00:00 | 00:00:00 | 00:00:00 | |
| 9A1FER-3 | 2026-08-30 12:41:31 | 44.73651 | 20.83710 | 8° | 22km/h | 30529m | 6.5m/s | -39.0°C | 0% | 0hPa | 5.4V | 00:00:00 | 00:00:00 | 00:00:00 | |
| OM5KV | 2026-08-30 12:41:29 | 44.73633 | 20.83699 | 39° | 40km/h | 30515m | 7.6m/s | -39.2°C | 2.8% | 0hPa | 5.4V | 00:00:00 | 00:00:00 | 00:00:00 | |
| OM5KV | 2026-08-30 12:41:23 | 44.73633 | 20.83682 | 288° | 27km/h | 30474m | 5.7m/s | -39.3°C | 2.7% | 0hPa | 5.4V | 00:00:00 | 00:00:00 | 00:00:00 | |
| OM5KV | 2026-08-30 12:41:17 | 44.73600 | 20.83671 | 68° | 31km/h | 30430m | 6.8m/s | -39.6°C | 2.8% | 0hPa | 5.4V | 00:00:00 | 00:00:00 | 00:00:00 | |
| OM5KV | 2026-08-30 12:41:15 | 44.73595 | 20.83658 | 44° | 9km/h | 30416m | 7.0m/s | -39.6°C | 2.8% | 0hPa | 5.4V | 00:00:00 | 00:00:00 | 00:00:00 | |
| 9A1FER-3 | 2026-08-30 12:41:12 | 44.73592 | 20.83659 | 297° | 22km/h | 30393m | 5.7m/s | -39.3°C | 0% | 0hPa | 5.4V | 00:00:00 | 00:00:00 | 00:00:00 | |
| OM5KV | 2026-08-30 12:41:10 | 44.73589 | 20.83667 | 297° | 13km/h | 30378m | 7.7m/s | -39.3°C | 2.7% | 0hPa | 5.4V | 00:00:00 | 00:00:00 | 00:00:00 | |
| OM5KV | 2026-08-30 12:41:04 | 44.73563 | 20.83635 | 51° | 29km/h | 30338m | 5.5m/s | -39.8°C | 2.9% | 0hPa | 5.4V | 00:00:00 | 00:00:00 | 00:00:00 | |
| OM5KV | 2026-08-30 12:40:59 | 44.73557 | 20.83637 | 323° | 15km/h | 30297m | 6.5m/s | -39.7°C | 2.8% | 0hPa | 5.4V | 00:00:00 | 00:00:00 | 00:00:00 | |
| OM5KV | 2026-08-30 12:40:54 | 44.73538 | 20.83633 | 42° | 18km/h | 30261m | 7.3m/s | -39.9°C | 2.8% | 0hPa | 5.4V | 00:00:00 | 00:00:00 | 00:00:00 | |
| 9A1FER-3 | 2026-08-30 12:40:53 | 44.73535 | 20.83629 | 25° | 11km/h | 30252m | 8.4m/s | -39.8°C | 0% | 0hPa | 5.4V | 00:00:00 | 00:00:00 | 00:00:00 | |
| OM5KV | 2026-08-30 12:40:49 | 44.73521 | 20.83639 | 293° | 7km/h | 30223m | 8.4m/s | -39.7°C | 2.7% | 0hPa | 5.4V | 00:00:00 | 00:00:00 | 00:00:00 | |
| OM5KV | 2026-08-30 12:40:43 | 44.73516 | 20.83630 | 13° | 16km/h | 30180m | 5.2m/s | -40.2°C | 2.7% | 0hPa | 5.4V | 00:00:00 | 00:00:00 | 00:00:00 | |
| OM5KV | 2026-08-30 12:40:37 | 44.73520 | 20.83636 | 222° | 9km/h | 30136m | 8.4m/s | -40.3°C | 2.7% | 0hPa | 5.4V | 00:00:00 | 00:00:00 | 00:00:00 | |
| 9A1FER-3 | 2026-08-30 12:40:34 | 44.73517 | 20.83640 | 8° | 9km/h | 30114m | 7.3m/s | -40.5°C | 0% | 0hPa | 5.4V | 00:00:00 | 00:00:00 | 00:00:00 | |
| OM5KV | 2026-08-30 12:40:31 | 44.73519 | 20.83634 | 143° | 15km/h | 30091m | 7.2m/s | -40.5°C | 2.7% | 0hPa | 5.4V | 00:00:00 | 00:00:00 | 00:00:00 | |
| 9A1FER-3 | 2026-08-30 12:40:19 | 44.73517 | 20.83609 | 83° | 18km/h | 30004m | 8.1m/s | -40.9°C | 0% | 0hPa | 5.4V | 00:00:00 | 00:00:00 | 00:00:00 | |
| 9A1FER-3 | 2026-08-30 12:40:01 | 44.73524 | 20.83498 | 81° | 37km/h | 29873m | 7.7m/s | -41.2°C | 0% | 0hPa | 5.4V | 00:00:00 | 00:00:00 | 00:00:00 | |
| LZ4TU-5 | 2026-08-30 12:39:55 | 44.73495 | 20.83458 | 82° | 29km/h | 29828m | 8.0m/s | -41.8°C | 2.6% | 0hPa | 5.4V | 00:00:00 | 00:00:00 | 00:00:00 | |
| LZ4TU-5 | 2026-08-30 12:39:50 | 44.73499 | 20.83408 | 77° | 31km/h | 29796m | 5.9m/s | -42.0°C | 2.6% | 0hPa | 5.4V | 00:00:00 | 00:00:00 | 00:00:00 | |
| 9A1FER-3 | 2026-08-30 12:39:44 | 44.73454 | 20.83337 | 46° | 29km/h | 29748m | 8.2m/s | -41.8°C | 0% | 0hPa | 5.4V | 00:00:00 | 00:00:00 | 00:00:00 | |
| 9A1FER-3 | 2026-08-30 12:39:24 | 44.73353 | 20.83172 | 6° | 27km/h | 29606m | 5.6m/s | -43.0°C | 0% | 0hPa | 5.4V | 00:00:00 | 00:00:00 | 00:00:00 | |
| LZ4TU-5 | 2026-08-30 12:37:51 | 44.73068 | 20.83093 | 328° | 13km/h | 28958m | 7.8m/s | -45.7°C | 3.0% | 0hPa | 5.5V | 00:00:00 | 00:00:00 | 00:00:00 | |
| LZ4TU-5 | 2026-08-30 12:35:23 | 44.72818 | 20.82824 | 324° | 13km/h | 27937m | 5.3m/s | -47.5°C | 2.9% | 0hPa | 5.5V | 00:00:00 | 00:00:00 | 00:00:00 | |
| LZ4TU-5 | 2026-08-30 12:35:18 | 44.72805 | 20.82810 | 87° | 13km/h | 27906m | 7.2m/s | -47.6°C | 2.9% | 0hPa | 5.5V | 00:00:00 | 00:00:00 | 00:00:00 | |
| LZ4TU-5 | 2026-08-30 12:33:22 | 44.72361 | 20.82736 | 9° | 24km/h | 27096m | 6.0m/s | -48.3°C | 2.6% | 0hPa | 5.5V | 00:00:00 | 00:00:00 | 00:00:00 | |
| LZ4TU-5 | 2026-08-30 12:33:17 | 44.72331 | 20.82750 | 337° | 16km/h | 27064m | 6.8m/s | -48.5°C | 2.6% | 0hPa | 5.5V | 00:00:00 | 00:00:00 | 00:00:00 | |
| OE3JTB-15 | 2026-08-30 12:32:20 | 44.72310 | 20.82971 | 112° | 16km/h | 26666m | 7.1m/s | -47.8°C | 0% | 0hPa | 5.5V | 00:00:00 | 00:00:00 | 00:00:00 | |
| LZ4TU-5 | 2026-08-30 12:31:28 | 44.72310 | 20.82848 | 20° | 29km/h | 26345m | 7.1m/s | -49.3°C | 2.7% | 0hPa | 5.5V | 00:00:00 | 00:00:00 | 00:00:00 | |
| LZ4TU-5 | 2026-08-30 12:31:24 | 44.72287 | 20.82856 | 328° | 29km/h | 26319m | 7.8m/s | -49.3°C | 2.7% | 0hPa | 5.5V | 00:00:00 | 00:00:00 | 00:00:00 | |
| OE3JTB-15 | 2026-08-30 12:30:11 | 44.71956 | 20.83298 | 328° | 15km/h | 25816m | 8.2m/s | -48.2°C | 0% | 0hPa | 5.5V | 00:00:00 | 00:00:00 | 00:00:00 | |
| LZ4TU-5 | 2026-08-30 12:29:37 | 44.71912 | 20.83232 | 359° | 26km/h | 25613m | 6.6m/s | -49.4°C | 2.7% | 0hPa | 5.5V | 00:00:00 | 00:00:00 | 00:00:00 | |
| LZ4TU-5 | 2026-08-30 12:29:32 | 44.71892 | 20.83229 | 359° | 9km/h | 25579m | 5.5m/s | -49.0°C | 2.6% | 0hPa | 5.5V | 00:00:00 | 00:00:00 | 00:00:00 | |
| OE3JTB-15 | 2026-08-30 12:28:18 | 44.71879 | 20.83709 | 275° | 16km/h | 25079m | 6.5m/s | -48.2°C | 0% | 0hPa | 5.5V | 00:00:00 | 00:00:00 | 00:00:00 | |
| LZ4TU-5 | 2026-08-30 12:27:11 | 44.71808 | 20.83558 | 356° | 7km/h | 24656m | 5.8m/s | -50.6°C | 1.7% | 0hPa | 5.5V | 00:00:00 | 00:00:00 | 00:00:00 | |
| LZ4TU-5 | 2026-08-30 12:27:06 | 44.71781 | 20.83575 | 351° | 31km/h | 24622m | 7.7m/s | -50.7°C | 1.8% | 0hPa | 5.5V | 00:00:00 | 00:00:00 | 00:00:00 | |
| OE3JTB-15 | 2026-08-30 12:26:25 | 44.71682 | 20.83684 | 217° | 15km/h | 24365m | 6.6m/s | -50.8°C | 0% | 0hPa | 5.5V | 00:00:00 | 00:00:00 | 00:00:00 | |
| OE3JTB-15 | 2026-08-30 12:25:55 | 44.71667 | 20.83833 | 32° | 16km/h | 24161m | 7.8m/s | -51.5°C | 0% | 0hPa | 5.5V | 00:00:00 | 00:00:00 | 00:00:00 | |
| OE3JTB-15 | 2026-08-30 12:25:26 | 44.71582 | 20.83864 | 298° | 18km/h | 23973m | 6.8m/s | -51.7°C | 0% | 0hPa | 5.5V | 00:00:00 | 00:00:00 | 00:00:00 | |
| LZ4TU-5 | 2026-08-30 12:25:12 | 44.71522 | 20.83918 | 334° | 20km/h | 23868m | 6.2m/s | -52.5°C | 1.8% | 0hPa | 5.5V | 00:00:00 | 00:00:00 | 00:00:00 | |
| LZ4TU-5 | 2026-08-30 12:25:06 | 44.71496 | 20.83924 | 354° | 15km/h | 23834m | 8.2m/s | -52.4°C | 1.8% | 0hPa | 5.5V | 00:00:00 | 00:00:00 | 00:00:00 | |
| OE3JTB-15 | 2026-08-30 12:24:55 | 44.71444 | 20.83968 | 330° | 18km/h | 23761m | 4.4m/s | -51.8°C | 0% | 0hPa | 5.5V | 00:00:00 | 00:00:00 | 00:00:00 | |
| OE3JTB-15 | 2026-08-30 12:24:26 | 44.71373 | 20.84098 | 280° | 16km/h | 23568m | 6.6m/s | -52.1°C | 0% | 0hPa | 5.5V | 00:00:00 | 00:00:00 | 00:00:00 | |
| OE3JTB-15 | 2026-08-30 12:23:57 | 44.71386 | 20.84225 | 183° | 11km/h | 23382m | 6.1m/s | -52.3°C | 0% | 0hPa | 5.5V | 00:00:00 | 00:00:00 | 00:00:00 | |
| OE3JTB-15 | 2026-08-30 12:23:28 | 44.71405 | 20.84239 | 27° | 22km/h | 23191m | 6.8m/s | -52.7°C | 0% | 0hPa | 5.5V | 00:00:00 | 00:00:00 | 00:00:00 | |
| LZ4TU-5 | 2026-08-30 12:22:58 | 44.71326 | 20.84254 | 267° | 29km/h | 23003m | 5.7m/s | -52.8°C | 1.3% | 0hPa | 5.5V | 00:00:00 | 00:00:00 | 00:00:00 | |
| OE3JTB-15 | 2026-08-30 12:22:55 | 44.71322 | 20.84276 | 303° | 24km/h | 22990m | 6.5m/s | -52.2°C | 0% | 0hPa | 5.5V | 00:00:00 | 00:00:00 | 00:00:00 | |
| LZ4TU-5 | 2026-08-30 12:22:52 | 44.71305 | 20.84292 | 348° | 20km/h | 22970m | 5.7m/s | -53.2°C | 1.5% | 0hPa | 5.5V | 00:00:00 | 00:00:00 | 00:00:00 | |
| OE3JTB-15 | 2026-08-30 12:22:26 | 44.71292 | 20.84475 | 173° | 15km/h | 22806m | 7.6m/s | -52.9°C | 0% | 0hPa | 5.5V | 00:00:00 | 00:00:00 | 00:00:00 | |
| OE3JTB-15 | 2026-08-30 12:21:49 | 44.71302 | 20.84615 | 239° | 9km/h | 22576m | 7.3m/s | -53.1°C | 0% | 0hPa | 5.5V | 00:00:00 | 00:00:00 | 00:00:00 | |
| OE3JTB-15 | 2026-08-30 12:21:20 | 44.71286 | 20.84659 | 294° | 9km/h | 22397m | 8.4m/s | -53.2°C | 0% | 0hPa | 5.5V | 00:00:00 | 00:00:00 | 00:00:00 | |
| LZ4TU-5 | 2026-08-30 12:21:05 | 44.71267 | 20.84702 | 225° | 15km/h | 22301m | 4.3m/s | -53.8°C | 1.6% | 0hPa | 5.6V | 00:00:00 | 00:00:00 | 00:00:00 | |
| LZ4TU-5 | 2026-08-30 12:21:00 | 44.71258 | 20.84716 | 332° | 20km/h | 22269m | 6.2m/s | -53.7°C | 1.6% | 0hPa | 5.6V | 00:00:00 | 00:00:00 | 00:00:00 | |
| LZ4TU-5 | 2026-08-30 12:19:12 | 44.71153 | 20.85143 | 246° | 9km/h | 21598m | 6.0m/s | -53.9°C | 1.9% | 0hPa | 5.6V | 00:00:00 | 00:00:00 | 00:00:00 | |
| LZ4TU-5 | 2026-08-30 12:19:07 | 44.71160 | 20.85160 | 218° | 15km/h | 21566m | 6.1m/s | -53.7°C | 1.8% | 0hPa | 5.6V | 00:00:00 | 00:00:00 | 00:00:00 | |
| OE3JTB-15 | 2026-08-30 12:18:30 | 44.71273 | 20.85208 | 101° | 13km/h | 21320m | 6.3m/s | -53.4°C | 0% | 0hPa | 5.6V | 00:00:00 | 00:00:00 | 00:00:00 | |
| LZ4TU-5 | 2026-08-30 12:17:17 | 44.71236 | 20.85149 | 349° | 13km/h | 20897m | 6.2m/s | -54.4°C | 1.6% | 0hPa | 5.6V | 00:00:00 | 00:00:00 | 00:00:00 | |
| LZ4TU-5 | 2026-08-30 12:17:14 | 44.71224 | 20.85153 | 295° | 11km/h | 20871m | 7.2m/s | -54.4°C | 0% | 0hPa | 5.6V | 00:00:00 | 00:00:00 | 00:00:00 | |
| LZ4TU-5 | 2026-08-30 12:15:23 | 44.70988 | 20.85067 | 30° | 11km/h | 20194m | 5.2m/s | -55.9°C | 1.6% | 0hPa | 5.6V | 00:00:00 | 00:00:00 | 00:00:00 | |
| LZ4TU-5 | 2026-08-30 12:15:18 | 44.70997 | 20.85060 | 162° | 5km/h | 20162m | 6.0m/s | -56.0°C | 1.7% | 0hPa | 5.6V | 00:00:00 | 00:00:00 | 00:00:00 | |
| OE3JTB-15 | 2026-08-30 12:15:13 | 44.70983 | 20.85032 | 66° | 22km/h | 20115m | 6.6m/s | -55.5°C | 0% | 0hPa | 5.6V | 00:00:00 | 00:00:00 | 00:00:00 | |
| OE3JTB-15 | 2026-08-30 12:14:32 | 44.70757 | 20.84924 | 4° | 24km/h | 19868m | 5.5m/s | -55.1°C | 0% | 0hPa | 5.6V | 00:00:00 | 00:00:00 | 00:00:00 | |
| OE3JTB-15 | 2026-08-30 12:14:01 | 44.70582 | 20.84973 | 305° | 15km/h | 19688m | 5.5m/s | -55.0°C | 0% | 0hPa | 5.6V | 00:00:00 | 00:00:00 | 00:00:00 | |
| OE3JTB-15 | 2026-08-30 12:13:32 | 44.70526 | 20.84975 | 44° | 20km/h | 19518m | 4.5m/s | -55.3°C | 0% | 0hPa | 5.6V | 00:00:00 | 00:00:00 | 00:00:00 | |
| LZ4TU-5 | 2026-08-30 12:13:30 | 44.70527 | 20.84975 | 44° | 16km/h | 19518m | 4.6m/s | -56.1°C | 1.8% | 0hPa | 5.6V | 00:00:00 | 00:00:00 | 00:00:00 | |
| LZ4TU-5 | 2026-08-30 12:13:24 | 44.70508 | 20.84965 | 337° | 16km/h | 19491m | 6.5m/s | -56.1°C | 1.8% | 0hPa | 5.6V | 00:00:00 | 00:00:00 | 00:00:00 | |
| OE3JTB-15 | 2026-08-30 12:12:58 | 44.70369 | 20.85017 | 352° | 20km/h | 19321m | 6.0m/s | -55.4°C | 0% | 0hPa | 5.6V | 00:00:00 | 00:00:00 | 00:00:00 | |
| OE3JTB-15 | 2026-08-30 12:12:27 | 44.70225 | 20.85073 | 355° | 15km/h | 19133m | 5.5m/s | -54.8°C | 0% | 0hPa | 5.6V | 00:00:00 | 00:00:00 | 00:00:00 | |
| OE3JTB-15 | 2026-08-30 12:11:54 | 44.70178 | 20.85090 | 305° | 13km/h | 18941m | 5.2m/s | -54.3°C | 0% | 0hPa | 5.6V | 00:00:00 | 00:00:00 | 00:00:00 | |
| LZ4TU-5 | 2026-08-30 12:11:39 | 44.70181 | 20.85096 | 0° | 0km/h | 18869m | 6.3m/s | -55.3°C | 2.1% | 0hPa | 5.6V | 00:00:00 | 00:00:00 | 00:00:00 | |
| OE3JTB-15 | 2026-08-30 12:10:25 | 44.70140 | 20.85007 | 130° | 15km/h | 18433m | 6.8m/s | -54.8°C | 0% | 0hPa | 5.6V | 00:00:00 | 00:00:00 | 00:00:00 | |
| LZ4TU-5 | 2026-08-30 12:09:52 | 44.70129 | 20.84926 | 99° | 5km/h | 18256m | 5.1m/s | -56.2°C | 2.3% | 0hPa | 0V | 00:00:00 | 00:00:00 | 00:00:00 | |
| LZ4TU-5 | 2026-08-30 12:09:47 | 44.70121 | 20.84916 | 31° | 20km/h | 18229m | 5.2m/s | -56.0°C | 2.2% | 0hPa | 0V | 00:00:00 | 00:00:00 | 00:00:00 | |
| LZ4TU-5 | 2026-08-30 12:08:03 | 44.70250 | 20.84262 | 86° | 31km/h | 17651m | 5.8m/s | -58.2°C | 2.5% | 0hPa | 0V | 00:00:00 | 00:00:00 | 00:00:00 | |
| LZ4TU-5 | 2026-08-30 12:07:58 | 44.70245 | 20.84201 | 83° | 38km/h | 17624m | 5.2m/s | -58.3°C | 2.7% | 0hPa | 0V | 00:00:00 | 00:00:00 | 00:00:00 | |
| LZ4TU-5 | 2026-08-30 12:06:20 | 44.69877 | 20.83662 | 45° | 15km/h | 17077m | 4.9m/s | -57.4°C | 2.6% | 0hPa | 0V | 00:00:00 | 00:00:00 | 00:00:00 | |
| LZ4TU-5 | 2026-08-30 12:06:16 | 44.69867 | 20.83658 | 318° | 11km/h | 17054m | 4.1m/s | -57.4°C | 2.6% | 0hPa | 0V | 00:00:00 | 00:00:00 | 00:00:00 | |
| LZ4TU-5 | 2026-08-30 12:04:32 | 44.70087 | 20.83322 | 132° | 42km/h | 16462m | 4.6m/s | -56.7°C | 3.6% | 0hPa | 0V | 00:00:00 | 00:00:00 | 00:00:00 | |
| LZ4TU-5 | 2026-08-30 12:04:27 | 44.70115 | 20.83269 | 122° | 40km/h | 16436m | 4.1m/s | -56.8°C | 3.6% | 0hPa | 0V | 00:00:00 | 00:00:00 | 00:00:00 | |
| LZ4TU-5 | 2026-08-30 12:02:37 | 44.70248 | 20.81285 | 89° | 53km/h | 15849m | 4.5m/s | -59.6°C | 4.9% | 0hPa | 0V | 00:00:00 | 00:00:00 | 00:00:00 | |
| LZ4TU-5 | 2026-08-30 12:02:33 | 44.70254 | 20.81217 | 99° | 47km/h | 15827m | 5.9m/s | -59.7°C | 5.0% | 0hPa | 0V | 00:00:00 | 00:00:00 | 00:00:00 | |
| LZ4TU-5 | 2026-08-30 12:00:39 | 44.70275 | 20.79785 | 132° | 38km/h | 15191m | 3.7m/s | -58.8°C | 6.6% | 0hPa | 0V | 00:00:00 | 00:00:00 | 00:00:00 | |
| LZ4TU-5 | 2026-08-30 12:00:34 | 44.70307 | 20.79722 | 130° | 42km/h | 15167m | 5.5m/s | -58.8°C | 6.7% | 0hPa | 0V | 00:00:00 | 00:00:00 | 00:00:00 | |
| LZ4TU-5 | 2026-08-30 11:58:45 | 44.70534 | 20.78442 | 131° | 44km/h | 14552m | 7.1m/s | -58.4°C | 9.1% | 0hPa | 0V | 00:00:00 | 00:00:00 | 00:00:00 | |
| LZ4TU-5 | 2026-08-30 11:58:40 | 44.70566 | 20.78382 | 117° | 40km/h | 14525m | 3.8m/s | -58.6°C | 9.5% | 0hPa | 0V | 00:00:00 | 00:00:00 | 00:00:00 | |
| LZ4TU-5 | 2026-08-30 11:56:57 | 44.71023 | 20.76500 | 113° | 58km/h | 13995m | 4.4m/s | -58.2°C | 11.8% | 0hPa | 0V | 00:00:00 | 00:00:00 | 00:00:00 | |
| LZ4TU-5 | 2026-08-30 11:56:53 | 44.71041 | 20.76427 | 107° | 55km/h | 13975m | 4.2m/s | -58.3°C | 12.0% | 0hPa | 0V | 00:00:00 | 00:00:00 | 00:00:00 | |
| LZ4TU-5 | 2026-08-30 11:55:10 | 44.71327 | 20.74670 | 109° | 44km/h | 13422m | 5.8m/s | -56.9°C | 16.1% | 0hPa | 0V | 00:00:00 | 00:00:00 | 00:00:00 | |
| LZ4TU-5 | 2026-08-30 11:55:05 | 44.71349 | 20.74609 | 111° | 51km/h | 13392m | 5.1m/s | -57.1°C | 16.4% | 0hPa | 0V | 00:00:00 | 00:00:00 | 00:00:00 | |
| LZ4TU-5 | 2026-08-30 11:53:22 | 44.71637 | 20.72671 | 109° | 66km/h | 12810m | 5.5m/s | -57.5°C | 24.5% | 0hPa | 0V | 00:00:00 | 00:00:00 | 00:00:00 | |
| LZ4TU-5 | 2026-08-30 11:53:17 | 44.71668 | 20.72567 | 111° | 60km/h | 12784m | 5.2m/s | -57.5°C | 24.9% | 0hPa | 0V | 00:00:00 | 00:00:00 | 00:00:00 | |
| LZ4TU-5 | 2026-08-30 11:51:36 | 44.72106 | 20.70519 | 109° | 66km/h | 12281m | 3.5m/s | -55.7°C | 30.0% | 0hPa | 0V | 00:00:00 | 00:00:00 | 00:00:00 | |
| LZ4TU-5 | 2026-08-30 11:51:30 | 44.72129 | 20.70420 | 117° | 57km/h | 12256m | 4.6m/s | -55.5°C | 30.1% | 0hPa | 0V | 00:00:00 | 00:00:00 | 00:00:00 | |
| LZ4TU-5 | 2026-08-30 11:49:24 | 44.72790 | 20.67752 | 99° | 60km/h | 11538m | 6.2m/s | -51.8°C | 31.9% | 0hPa | 0V | 00:00:00 | 00:00:00 | 00:00:00 | |
| LZ4TU-5 | 2026-08-30 11:49:19 | 44.72814 | 20.67641 | 108° | 64km/h | 11503m | 7.6m/s | -51.6°C | 32.0% | 0hPa | 0V | 00:00:00 | 00:00:00 | 00:00:00 | |
| LZ4TU-5 | 2026-08-30 11:47:14 | 44.73193 | 20.64754 | 99° | 73km/h | 10817m | 5.4m/s | -46.8°C | 45.4% | 0hPa | 0V | 00:00:00 | 00:00:00 | 00:00:00 | |
| LZ4TU-5 | 2026-08-30 11:47:10 | 44.73200 | 20.64652 | 95° | 64km/h | 10798m | 4.8m/s | -46.7°C | 45.9% | 0hPa | 0V | 00:00:00 | 00:00:00 | 00:00:00 | |
| LZ4TU-5 | 2026-08-30 11:45:32 | 44.73372 | 20.62281 | 97° | 58km/h | 10266m | 7.2m/s | -42.4°C | 40.1% | 0hPa | 0V | 00:00:00 | 00:00:00 | 00:00:00 | |
| LZ4TU-5 | 2026-08-30 11:45:27 | 44.73378 | 20.62183 | 97° | 69km/h | 10234m | 6.4m/s | -42.1°C | 39.6% | 0hPa | 0V | 00:00:00 | 00:00:00 | 00:00:00 | |
| LZ4TU-5 | 2026-08-30 11:43:49 | 44.73665 | 20.59754 | 104° | 69km/h | 9667m | 6.6m/s | -37.1°C | 33.4% | 0hPa | 0V | 00:00:00 | 00:00:00 | 00:00:00 | |
| LZ4TU-5 | 2026-08-30 11:43:44 | 44.73675 | 20.59654 | 97° | 47km/h | 9640m | 5.6m/s | -37.0°C | 36.7% | 0hPa | 0V | 00:00:00 | 00:00:00 | 00:00:00 | |
| LZ4TU-5 | 2026-08-30 11:42:05 | 44.73757 | 20.57531 | 77° | 55km/h | 9084m | 5.2m/s | -32.3°C | 38.5% | 0hPa | 0V | 00:00:00 | 00:00:00 | 00:00:00 | |
| LZ4TU-5 | 2026-08-30 11:42:00 | 44.73763 | 20.57443 | 97° | 64km/h | 9052m | 7.1m/s | -32.0°C | 37.6% | 0hPa | 0V | 00:00:00 | 00:00:00 | 00:00:00 | |
| LZ4TU-5 | 2026-08-30 11:40:23 | 44.73974 | 20.55237 | 121° | 71km/h | 8506m | 4.7m/s | -27.5°C | 35.2% | 0hPa | 0V | 00:00:00 | 00:00:00 | 00:00:00 | |
| LZ4TU-5 | 2026-08-30 11:40:18 | 44.73997 | 20.55122 | 89° | 60km/h | 8477m | 7.8m/s | -27.3°C | 35.2% | 0hPa | 0V | 00:00:00 | 00:00:00 | 00:00:00 | |
| LZ4TU-5 | 2026-08-30 11:38:40 | 44.74421 | 20.52927 | 110° | 60km/h | 7920m | 5.4m/s | -23.1°C | 33.8% | 0hPa | 0V | 00:00:00 | 00:00:00 | 00:00:00 | |
| LZ4TU-5 | 2026-08-30 11:38:35 | 44.74438 | 20.52794 | 111° | 78km/h | 7900m | 4.9m/s | -23.0°C | 30.9% | 0hPa | 0V | 00:00:00 | 00:00:00 | 00:00:00 | |
| LZ4TU-5 | 2026-08-30 11:36:59 | 44.74920 | 20.51081 | 96° | 51km/h | 7327m | 7.4m/s | -19.2°C | 9.5% | 0hPa | 0V | 00:00:00 | 00:00:00 | 00:00:00 | |
| LZ4TU-5 | 2026-08-30 11:36:54 | 44.74958 | 20.50976 | 124° | 69km/h | 7298m | 3.1m/s | -18.9°C | 9.6% | 0hPa | 0V | 00:00:00 | 00:00:00 | 00:00:00 | |
| LZ4TU-5 | 2026-08-30 11:35:17 | 44.75412 | 20.49346 | 111° | 60km/h | 6771m | 5.4m/s | -15.9°C | 34.9% | 0hPa | 0V | 00:00:00 | 00:00:00 | 00:00:00 |